Aérodrome :
LOGIN :

S'inscrire | Disclaimer

   EN    FR    IT 

 










Légende :    VFR   VFR Marginal   IFR   IFR Intensif   IFR Très Intensif
Visi : 
Plafond : 
>= 8 km
>= 3000ft
5 à 8 km
1000 à 3000 ft
1500m à 5 km
500 à 1000 ft
800 à 1500m
200 à 500 ft
< 800m
< 200 ft
Symboles :   Orages  Brouillard  Fortes neiges  Fortes précipitations  Vent > 20 kt
SIGMETs :   Divers  Orages  Givrage  Turbulence  Onde Orograph.  Cendres Volcan.







- Altitude de l'aérodrome : 195 ft
- Voir les cartes d'approche


LFMY - Salon de Provence

DERNIER METAR :
  • 182300Z AUTO VRB02KT 9999 FEW041 18/17 Q1020

METARs EXPIRÉS :
  • 182230Z AUTO 00000KT CAVOK 19/17 Q1020
  • 182200Z AUTO 00000KT CAVOK 19/17 Q1020
  • 182130Z AUTO 00000KT CAVOK 19/17 Q1019
  • 182100Z AUTO 00000KT CAVOK 20/18 Q1019
  • 182030Z AUTO 00000KT 9999 FEW016 20/18 Q1019

TAF TAF LFMY
Valide du 18 à 15h jusqu'au 19 à 15h UTC


181400Z 1815/1915 22010KT CAVOK
TEMPO 1815/1818 FEW035CB
BECMG 1819/1821 07003KT
PROB30
TEMPO 1902/1907 3000 BR
BECMG 1911/1913 22010KT
Pas de NOTAMs connus pour ce terrain.



MET'MAP, la Météo Aéronautique d'un coup d'oeil ! - Copyright ORBIFLY Décembre 2007 - Disclaimer

ORBIFLY MET'MAP TEAM :

Programmation & Développement : Alexandra Zaïnal
Conception & Développement : Baudouin d'Aumeries
Co-Programmation & Développement : Marc-Olivier Méhu
Soutien technique & logistique : Manuel Goepfert

Contact : metmap@orbifly.com




SOURCES & CREDITS :

   NOAA